Terminal Aerodrome Forecast
Issued by NWS

Home | Current Version | Previous Version | Text Only | Print | Product List | Glossary On
Versions: 1 2 3 4 5 6 7 8 9 10 11 12 13 14 15
000
FTUS45 KTFX 211700
TAFCTB
TAF
KCTB 211733Z 2118/2218 28015G25KT P6SM -SHRA BKN040 OVC060
     FM212200 26015G28KT P6SM -SHRA SCT050 BKN070
     FM220200 29015G23KT P6SM BKN090
     FM220800 25008KT P6SM SKC=

USA.gov is the U.S. government's official web portal to all federal, state and local government web resources and services.